Iron Mountain, MI (49801)

1:26 AM CDT on April 29, 2017 (GMT -0500)
Breitung Avenue | | Change Station
Active Advisory: Flood Advisory Active Notice: Flood Advisory

Elev 1117 ft 45.80 °N, 88.08 °W | Updated 12 seconds ago

Clear
Clear
30.0 °F
Feels Like 30 °F
N
1.0
Wind Variable Wind from NW

Today
High -- | Low -- °F
--% Chance of Precip.
Yesterday
High -- | Low -- °F
Precip. -- in
Pressure 30.15 in
Visibility 10.0 miles
Clouds Clear
Windchill 30 °F
Dew Point 26 °F
Humidity 88%
Rainfall 0.00 in
Snow Depth Not available.
5:42 AM 7:57 PM
Waxing Crescent, 11% visible
METAR KIMT 290554Z AUTO 31006KT 10SM CLR M01/M05 A3011 RMK AO2 SLP209 T10061050 10061 21006 400611011 51020
Pressure 30.15 in
Visibility 10.0 miles
Clouds Clear
Windchill 30 °F
Dew Point 26 °F
Humidity 88%
Rainfall 0.00 in
Snow Depth Not available.
5:42 AM 7:57 PM
Waxing Crescent, 11% visible
METAR KIMT 290554Z AUTO 31006KT 10SM CLR M01/M05 A3011 RMK AO2 SLP209 T10061050 10061 21006 400611011 51020

Get Your Daily Forecast Email!

Thanks for signing up!

Be on the lookout for a verification email in your inbox.

You'll start receiving severe weather alerts in your inbox..

×

10-Day Weather Forecast

Almanac

Astronomy

Apr. 29, 2017 Rise Set
Actual Time
Civil Twilight
Nautical Twilight
Astronomical Twilight
Moon
Length of Visible Light
Length of Day
Tomorrow will be .
, % of the Moon is Illuminated

Today's Extremes

State Highs State Lows

Community

WunderPhotos

WunderBlog® & News

Nearby

Air Quality

  Air Quality AQ Index Pollutant
Not available.

Snow Depth

Station Depth Elevation

Earthquake Activity

City Distance Mag. Time & Date
Minimum magnitude displayed is 2.5.

Coastal Water Temperatures

Place Temperature

Stations

Nearby Weather Stations

Station Location Temp. Windchill Dew Point Humidity Wind Precip. Elev Updated Type
                   

Watches & Warnings

Flood Advisory
Issued: 11:50 AM CDT Apr. 28, 2017 – National Weather Service

The National Weather Service in Green Bay has issued a
* flood advisory for
the Menominee river near big Quinnesec falls dam
* at 11:30 am Friday the flow was 9573 cfs.
* At 10000 cfs, flow is fast. Property owners should protect
shoreline equipment.


Lat... Lon 4588 8811 4579 8790 4572 8790 4579 8819





1150 am CDT Fri Apr 28 2017

The National Weather Service in Green Bay has issued a
* flood advisory for
the Menominee river near Kingsford
* at 11:30 am Friday the flow was 8815 cfs.
* At 8000 cfs, flows at this rate downstream from the Kingsford dam
may impact some shoreline structures.


Lat... Lon 4583 8811 4581 8806 4576 8806 4581 8817